createdAt,value
2019-01-06T00:02:18.167Z,8.20
2019-01-06T00:04:50.996Z,8.20
2019-01-06T00:07:33.915Z,8.00
2019-01-06T00:10:15.920Z,8.20
2019-01-06T00:12:49.287Z,8.00
2019-01-06T00:15:28.898Z,8.00
2019-01-06T00:18:02.015Z,8.00
2019-01-06T00:20:47.058Z,8.10
2019-01-06T00:23:32.145Z,8.10
2019-01-06T00:26:15.071Z,8.00
2019-01-06T00:28:52.011Z,8.20
2019-01-06T00:31:31.629Z,8.20
2019-01-06T00:34:18.902Z,8.20
2019-01-06T00:36:49.519Z,8.20
2019-01-06T00:39:31.702Z,8.10
2019-01-06T00:42:18.473Z,8.00
2019-01-06T00:44:57.690Z,8.00
2019-01-06T00:47:34.026Z,8.10
2019-01-06T00:50:10.175Z,8.20
2019-01-06T00:52:57.511Z,8.30
2019-01-06T00:55:44.742Z,8.10
2019-01-06T00:58:31.149Z,8.30
2019-01-06T01:01:03.992Z,8.30
2019-01-06T01:03:36.819Z,8.40
2019-01-06T01:06:25.178Z,8.30
2019-01-06T01:09:13.531Z,8.30
2019-01-06T01:11:47.313Z,8.40
2019-01-06T01:14:27.842Z,8.30
2019-01-06T01:17:04.327Z,8.30
2019-01-06T01:19:37.716Z,8.30
2019-01-06T01:22:11.059Z,8.30
2019-01-06T01:24:49.913Z,8.30
2019-01-06T01:27:36.204Z,8.30
2019-01-06T01:30:22.425Z,8.20
2019-01-06T01:32:58.874Z,8.00
2019-01-06T01:35:34.877Z,8.40
2019-01-06T01:38:05.784Z,8.20
2019-01-06T01:40:52.629Z,8.00
2019-01-06T01:43:38.554Z,8.00
2019-01-06T01:46:15.216Z,8.10
2019-01-06T01:48:45.378Z,8.20
2019-01-06T01:51:30.370Z,8.20
2019-01-06T01:54:00.675Z,8.20
2019-01-06T01:56:43.164Z,8.30
2019-01-06T01:59:20.354Z,8.30
2019-01-06T02:01:59.522Z,8.40
2019-01-06T02:04:33.485Z,8.50
2019-01-06T02:07:18.481Z,8.30
2019-01-06T02:09:51.313Z,8.80
2019-01-06T02:12:27.162Z,8.70
2019-01-06T02:15:06.628Z,8.80
2019-01-06T02:17:55.551Z,8.90
2019-01-06T02:20:28.911Z,8.80
2019-01-06T02:23:03.380Z,8.80
2019-01-06T02:25:34.309Z,8.90
2019-01-06T02:28:21.467Z,8.90
2019-01-06T02:31:08.143Z,8.90
2019-01-06T02:33:44.045Z,8.80
2019-01-06T02:36:17.173Z,8.70
2019-01-06T02:38:50.116Z,8.70
2019-01-06T02:41:20.346Z,8.70
2019-01-06T02:43:53.824Z,8.90
2019-01-06T02:46:42.184Z,8.90
2019-01-06T02:49:28.905Z,8.90
2019-01-06T02:52:15.513Z,8.60
2019-01-06T02:55:00.826Z,9.00
2019-01-06T02:57:47.281Z,8.70
2019-01-06T03:00:38.985Z,8.70
2019-01-06T03:03:12.400Z,8.70
2019-01-06T03:05:46.405Z,8.70
2019-01-06T03:08:25.584Z,9.00
2019-01-06T03:11:04.466Z,8.80
2019-01-06T03:13:43.622Z,8.80
2019-01-06T03:16:30.374Z,8.80
2019-01-06T03:19:16.951Z,8.90
2019-01-06T03:21:49.798Z,8.70
2019-01-06T03:24:26.026Z,8.90
2019-01-06T03:27:13.654Z,8.90
2019-01-06T03:29:55.650Z,9.00
2019-01-06T03:32:25.900Z,8.90
2019-01-06T03:35:01.984Z,8.90
2019-01-06T03:37:32.271Z,8.90
2019-01-06T03:40:05.671Z,8.90
2019-01-06T03:42:41.643Z,9.00
2019-01-06T03:45:15.115Z,8.90
2019-01-06T03:47:55.783Z,8.90
2019-01-06T03:50:41.140Z,9.00
2019-01-06T03:53:27.553Z,9.20
2019-01-06T03:56:15.698Z,9.10
2019-01-06T03:59:02.126Z,9.00
2019-01-06T04:01:47.509Z,9.00
2019-01-06T04:04:20.368Z,8.80
2019-01-06T04:06:50.889Z,8.70
2019-01-06T04:09:29.928Z,8.90
2019-01-06T04:12:18.092Z,8.60
2019-01-06T04:14:54.059Z,8.50
2019-01-06T04:17:43.201Z,8.50
2019-01-06T04:20:29.616Z,8.30
2019-01-06T04:23:09.409Z,8.30
2019-01-06T04:25:56.496Z,8.30
2019-01-06T04:28:32.809Z,8.40
2019-01-06T04:31:21.638Z,7.90
2019-01-06T04:33:52.335Z,8.00
2019-01-06T04:36:28.530Z,7.80
2019-01-06T04:38:59.729Z,7.80
2019-01-06T04:41:35.590Z,7.80
2019-01-06T04:44:06.792Z,7.70
2019-01-06T04:46:51.845Z,7.80
2019-01-06T04:49:30.798Z,7.60
2019-01-06T04:52:01.047Z,7.30
2019-01-06T04:54:33.911Z,7.40
2019-01-06T04:57:07.196Z,7.80
2019-01-06T04:59:43.750Z,7.30
2019-01-06T05:02:14.498Z,7.30
2019-01-06T05:04:51.242Z,7.30
2019-01-06T05:07:27.702Z,7.30
2019-01-06T05:10:01.105Z,7.20
2019-01-06T05:12:34.862Z,7.20
2019-01-06T05:15:14.928Z,7.10
2019-01-06T05:17:50.734Z,7.10
2019-01-06T05:20:21.208Z,7.00
2019-01-06T05:22:52.287Z,6.90
2019-01-06T05:25:39.138Z,7.10
2019-01-06T05:28:25.660Z,7.10
2019-01-06T05:30:56.045Z,7.20
2019-01-06T05:33:41.070Z,7.60
2019-01-06T05:36:27.839Z,7.80
2019-01-06T05:38:58.761Z,7.80
2019-01-06T05:41:29.966Z,8.00
2019-01-06T05:44:11.843Z,8.10
2019-01-06T05:46:45.071Z,8.20
2019-01-06T05:49:15.724Z,8.50
2019-01-06T05:51:47.210Z,8.30
2019-01-06T05:54:18.065Z,8.40
2019-01-06T05:57:04.312Z,8.60
2019-01-06T05:59:43.573Z,8.90
2019-01-06T06:02:22.766Z,9.00
2019-01-06T06:04:53.104Z,8.90
2019-01-06T06:07:26.258Z,9.00
2019-01-06T06:09:59.204Z,9.00
2019-01-06T06:12:47.488Z,9.00
2019-01-06T06:15:34.095Z,9.10
2019-01-06T06:18:16.072Z,9.20
2019-01-06T06:21:03.472Z,9.40
2019-01-06T06:23:42.581Z,9.50
2019-01-06T06:26:29.764Z,9.50
2019-01-06T06:29:03.205Z,9.50
2019-01-06T06:31:36.929Z,9.50
2019-01-06T06:34:08.071Z,9.60
2019-01-06T06:36:55.477Z,9.50
2019-01-06T06:39:31.715Z,9.50
2019-01-06T06:42:02.044Z,9.50
2019-01-06T06:44:38.235Z,9.50
2019-01-06T06:47:14.780Z,9.50
2019-01-06T06:49:52.453Z,9.40
2019-01-06T06:52:35.239Z,9.40
2019-01-06T06:55:14.865Z,9.30
2019-01-06T06:58:20.327Z,9.30
2019-01-06T07:00:59.624Z,9.20
2019-01-06T07:03:55.834Z,9.30
2019-01-06T07:06:32.741Z,9.30
2019-01-06T07:09:18.286Z,9.30
2019-01-06T07:12:05.182Z,9.30
2019-01-06T07:14:41.953Z,9.00
2019-01-06T07:17:46.805Z,8.90
2019-01-06T07:20:24.773Z,8.90
2019-01-06T07:23:12.827Z,9.00
2019-01-06T07:25:46.523Z,9.00
2019-01-06T07:28:17.248Z,9.00
2019-01-06T07:30:50.860Z,8.40
2019-01-06T07:33:38.308Z,8.50
2019-01-06T07:36:18.438Z,8.40
2019-01-06T07:39:00.841Z,8.60
2019-01-06T07:41:39.748Z,8.30
2019-01-06T07:44:17.205Z,8.30
2019-01-06T07:47:03.899Z,8.00
2019-01-06T07:49:46.754Z,8.20
2019-01-06T07:52:20.099Z,8.20
2019-01-06T07:54:50.936Z,8.30
2019-01-06T07:57:30.491Z,8.10
2019-01-06T08:00:14.864Z,8.20
2019-01-06T08:02:55.671Z,8.00
2019-01-06T08:05:38.417Z,8.00
2019-01-06T08:08:11.948Z,8.00
2019-01-06T08:10:54.558Z,8.00
2019-01-06T08:13:34.048Z,7.90
2019-01-06T08:16:19.549Z,7.90
2019-01-06T08:18:50.271Z,7.80
2019-01-06T08:21:33.023Z,7.70
2019-01-06T08:24:04.053Z,7.80
2019-01-06T08:26:37.102Z,7.80
2019-01-06T08:29:16.153Z,7.80
2019-01-06T08:32:04.093Z,7.60
2019-01-06T08:34:38.364Z,7.80
2019-01-06T08:37:18.210Z,7.80
2019-01-06T08:39:51.891Z,7.60
2019-01-06T08:42:40.345Z,7.70
2019-01-06T08:45:14.429Z,7.90
2019-01-06T08:48:03.537Z,7.60
2019-01-06T08:50:34.242Z,7.60
2019-01-06T08:53:23.537Z,7.30
2019-01-06T08:56:10.993Z,7.50
2019-01-06T08:58:41.511Z,7.30
2019-01-06T09:01:17.885Z,7.40
2019-01-06T09:04:05.074Z,7.50
2019-01-06T09:06:43.908Z,7.30
2019-01-06T09:09:32.528Z,7.20
2019-01-06T09:12:02.855Z,7.30
2019-01-06T09:14:50.460Z,7.00
2019-01-06T09:17:20.687Z,7.30
2019-01-06T09:19:51.481Z,7.20
2019-01-06T09:22:38.778Z,7.20
2019-01-06T09:25:17.088Z,7.20
2019-01-06T09:27:47.853Z,7.10
2019-01-06T09:30:30.865Z,7.10
2019-01-06T09:33:07.937Z,7.30
2019-01-06T09:35:41.282Z,7.00
2019-01-06T09:38:12.145Z,6.90
2019-01-06T09:40:43.131Z,6.90
2019-01-06T09:43:25.839Z,6.90
2019-01-06T09:46:15.405Z,6.80
2019-01-06T09:48:51.569Z,6.80
2019-01-06T09:51:31.963Z,6.90
2019-01-06T09:54:08.477Z,6.90
2019-01-06T09:56:51.515Z,6.80
2019-01-06T09:59:36.509Z,6.90
2019-01-06T10:02:23.387Z,6.90
2019-01-06T10:05:12.867Z,6.90
2019-01-06T10:07:49.676Z,7.10
2019-01-06T10:10:23.734Z,6.80
2019-01-06T10:13:11.375Z,7.00
2019-01-06T10:15:44.818Z,6.80
2019-01-06T10:18:27.185Z,6.70
2019-01-06T10:20:57.917Z,6.50
2019-01-06T10:23:28.759Z,7.00
2019-01-06T10:26:00.051Z,6.60
2019-01-06T10:28:31.337Z,6.50
2019-01-06T10:31:14.631Z,6.60
2019-01-06T10:33:54.343Z,6.50
2019-01-06T10:36:36.432Z,6.50
2019-01-06T10:39:20.592Z,6.50
2019-01-06T10:41:56.803Z,6.50
2019-01-06T10:44:42.345Z,6.50
2019-01-06T10:47:15.926Z,6.60
2019-01-06T10:49:55.831Z,6.60
2019-01-06T10:52:29.865Z,6.40
2019-01-06T10:55:17.488Z,6.40
2019-01-06T10:57:48.416Z,6.40
2019-01-06T11:00:37.360Z,6.30
2019-01-06T11:03:10.790Z,6.30
2019-01-06T11:05:57.036Z,6.20
2019-01-06T11:08:34.140Z,6.30
2019-01-06T11:11:11.480Z,6.10
2019-01-06T11:13:44.807Z,6.30
2019-01-06T11:16:32.162Z,6.20
2019-01-06T11:19:06.086Z,5.90
2019-01-06T11:21:42.929Z,5.80
2019-01-06T11:24:19.343Z,6.00
2019-01-06T11:27:02.282Z,6.30
2019-01-06T11:29:33.060Z,6.00
2019-01-06T11:32:03.564Z,5.90
2019-01-06T11:34:34.509Z,6.20
2019-01-06T11:37:10.905Z,6.00
2019-01-06T11:39:58.213Z,5.90
2019-01-06T11:42:28.967Z,5.90
2019-01-06T11:45:08.728Z,6.00
2019-01-06T11:47:45.233Z,6.10
2019-01-06T11:50:15.805Z,6.00
2019-01-06T11:52:58.687Z,6.00
2019-01-06T11:55:29.640Z,5.90
2019-01-06T11:58:16.494Z,5.90
2019-01-06T12:00:56.756Z,6.00
2019-01-06T12:03:43.670Z,5.80
2019-01-06T12:06:14.592Z,5.80
2019-01-06T12:08:48.835Z,5.90
2019-01-06T12:11:19.656Z,5.70
2019-01-06T12:14:06.281Z,5.60
2019-01-06T12:16:53.823Z,5.50
2019-01-06T12:19:33.687Z,5.60
2019-01-06T12:22:09.364Z,5.50
2019-01-06T12:24:40.283Z,5.60
2019-01-06T12:27:14.334Z,5.70
2019-01-06T12:30:00.976Z,5.60
2019-01-06T12:32:34.446Z,5.80
2019-01-06T12:35:13.947Z,5.60
2019-01-06T12:38:03.280Z,5.60
2019-01-06T12:40:51.322Z,5.60
2019-01-06T12:43:25.657Z,5.60
2019-01-06T12:46:08.131Z,5.40
2019-01-06T12:48:41.363Z,5.70
2019-01-06T12:51:11.575Z,5.60
2019-01-06T12:53:58.760Z,5.40
2019-01-06T12:56:45.713Z,5.30
2019-01-06T12:59:29.138Z,5.30
2019-01-06T13:02:03.672Z,5.40
2019-01-06T13:04:34.517Z,5.20
2019-01-06T13:07:11.482Z,5.40
2019-01-06T13:09:51.031Z,5.30
2019-01-06T13:12:40.041Z,5.30
2019-01-06T13:15:10.997Z,5.30
2019-01-06T13:17:41.828Z,5.50
2019-01-06T13:20:15.221Z,5.30
2019-01-06T13:22:52.721Z,5.20
2019-01-06T13:25:23.698Z,5.70
2019-01-06T13:28:01.365Z,5.40
2019-01-06T13:30:34.475Z,5.60
2019-01-06T13:33:20.804Z,5.70
2019-01-06T13:36:07.470Z,5.60
2019-01-06T13:38:37.693Z,5.50
2019-01-06T13:41:13.792Z,5.60
2019-01-06T13:44:00.953Z,5.40
2019-01-06T13:46:46.830Z,5.60
2019-01-06T13:49:20.583Z,5.70
2019-01-06T13:51:54.282Z,5.50
2019-01-06T13:54:30.315Z,5.50
2019-01-06T13:57:16.802Z,5.70
2019-01-06T14:00:02.690Z,5.50
2019-01-06T14:02:40.180Z,5.50
2019-01-06T14:05:16.678Z,5.70
2019-01-06T14:08:05.808Z,5.50
2019-01-06T14:10:42.538Z,5.50
2019-01-06T14:13:15.853Z,5.70
2019-01-06T14:16:02.825Z,5.40
2019-01-06T14:18:48.213Z,5.40
2019-01-06T14:21:33.211Z,5.50
2019-01-06T14:24:18.921Z,5.50
2019-01-06T14:26:49.153Z,5.60
2019-01-06T14:29:35.864Z,5.70
2019-01-06T14:32:09.682Z,5.40
2019-01-06T14:34:43.367Z,5.60
2019-01-06T14:37:29.548Z,5.70
2019-01-06T14:40:00.197Z,5.60
2019-01-06T14:42:47.301Z,5.70
2019-01-06T14:45:34.618Z,5.60
2019-01-06T14:48:08.421Z,5.60
2019-01-06T14:50:42.094Z,5.50
2019-01-06T14:53:18.487Z,5.70
2019-01-06T14:56:04.424Z,5.50
2019-01-06T14:58:40.903Z,5.50
2019-01-06T15:01:11.124Z,5.50
2019-01-06T15:03:53.328Z,5.70
2019-01-06T15:06:23.496Z,5.60
2019-01-06T15:08:57.223Z,5.30
2019-01-06T15:11:44.294Z,5.30
2019-01-06T15:14:29.482Z,5.70
2019-01-06T15:17:16.928Z,5.30
2019-01-06T15:20:05.989Z,5.40
2019-01-06T15:22:52.197Z,5.00
2019-01-06T15:25:25.585Z,5.10
2019-01-06T15:27:56.346Z,5.40
2019-01-06T15:30:33.508Z,5.10
2019-01-06T15:33:05.252Z,5.10
2019-01-06T15:35:38.218Z,5.00
2019-01-06T15:38:09.104Z,5.10
2019-01-06T15:40:41.949Z,5.40
2019-01-06T15:43:20.849Z,5.10
2019-01-06T15:45:59.688Z,5.00
2019-01-06T15:48:29.899Z,5.30
2019-01-06T15:51:08.754Z,5.40
2019-01-06T15:53:45.161Z,5.30
2019-01-06T15:56:35.463Z,5.10
2019-01-06T15:59:17.976Z,5.10
2019-01-06T16:01:58.382Z,5.10
2019-01-06T16:04:38.096Z,5.40
2019-01-06T16:07:08.863Z,5.30
2019-01-06T16:09:42.552Z,5.20
2019-01-06T16:12:30.599Z,5.00
2019-01-06T16:15:07.457Z,5.30
2019-01-06T16:17:54.768Z,5.00
2019-01-06T16:20:25.558Z,5.40
2019-01-06T16:22:59.246Z,5.30
2019-01-06T16:25:46.832Z,5.30
2019-01-06T16:28:18.529Z,5.00
2019-01-06T16:30:58.921Z,5.30
2019-01-06T16:33:45.441Z,5.30
2019-01-06T16:36:18.710Z,5.30
2019-01-06T16:38:48.927Z,5.40
2019-01-06T16:41:36.994Z,5.20
2019-01-06T16:44:10.069Z,5.30
2019-01-06T16:46:57.419Z,5.20
2019-01-06T16:49:27.809Z,5.60
2019-01-06T16:52:14.626Z,5.10
2019-01-06T16:54:47.818Z,5.60
2019-01-06T16:57:30.454Z,5.50
2019-01-06T17:00:06.996Z,5.40
2019-01-06T17:02:43.564Z,5.60
2019-01-06T17:05:14.348Z,5.70
2019-01-06T17:08:02.172Z,5.60
2019-01-06T17:10:47.660Z,5.60
2019-01-06T17:13:24.376Z,5.50
2019-01-06T17:15:57.206Z,5.60
2019-01-06T17:18:42.509Z,5.60
2019-01-06T17:21:28.692Z,5.50
2019-01-06T17:23:58.882Z,5.90
2019-01-06T17:26:32.604Z,5.90
2019-01-06T17:29:12.736Z,5.60
2019-01-06T17:31:55.348Z,5.50
2019-01-06T17:34:32.096Z,5.60
2019-01-06T17:37:02.828Z,5.50
2019-01-06T17:39:51.803Z,5.70
2019-01-06T17:42:28.036Z,5.70
2019-01-06T17:45:11.096Z,5.70
2019-01-06T17:47:41.837Z,5.60
2019-01-06T17:50:15.132Z,5.40
2019-01-06T17:53:02.468Z,5.40
2019-01-06T17:55:49.289Z,5.40
2019-01-06T17:58:36.490Z,5.30
2019-01-06T18:01:15.844Z,5.40
2019-01-06T18:03:58.266Z,5.40
2019-01-06T18:06:31.405Z,5.30
2019-01-06T18:09:17.287Z,5.30
2019-01-06T18:11:48.338Z,5.10
2019-01-06T18:14:35.993Z,5.00
2019-01-06T18:17:06.699Z,5.30
2019-01-06T18:19:54.070Z,5.00
2019-01-06T18:22:25.533Z,5.10
2019-01-06T18:25:11.793Z,5.10
2019-01-06T18:27:46.437Z,4.90
2019-01-06T18:30:23.372Z,5.00
2019-01-06T18:33:12.282Z,4.90
2019-01-06T18:35:59.499Z,4.90
2019-01-06T18:38:38.802Z,5.00
2019-01-06T18:41:15.287Z,4.80
2019-01-06T18:43:48.131Z,4.70
2019-01-06T18:46:18.383Z,4.90
2019-01-06T18:49:01.263Z,5.00
2019-01-06T18:51:36.971Z,5.10
2019-01-06T18:54:10.419Z,5.00
2019-01-06T18:56:58.984Z,5.00
2019-01-06T18:59:32.552Z,4.80
2019-01-06T19:02:20.379Z,5.10
2019-01-06T19:05:10.131Z,4.80
2019-01-06T19:07:47.084Z,5.10
2019-01-06T19:10:33.157Z,4.90
2019-01-06T19:13:20.284Z,4.80
2019-01-06T19:15:53.846Z,4.90
2019-01-06T19:18:25.545Z,5.00
2019-01-06T19:20:59.915Z,4.80
2019-01-06T19:23:47.571Z,5.10
2019-01-06T19:26:21.382Z,5.00
2019-01-06T19:29:08.439Z,5.00
2019-01-06T19:31:41.259Z,5.30
2019-01-06T19:34:18.204Z,5.30
2019-01-06T19:36:48.367Z,5.20
2019-01-06T19:39:35.406Z,5.60
2019-01-06T19:42:22.005Z,5.60
2019-01-06T19:44:55.922Z,5.90
2019-01-06T19:47:33.309Z,6.00
2019-01-06T19:50:06.533Z,6.00
2019-01-06T19:52:43.076Z,5.90
2019-01-06T19:55:25.691Z,5.90
2019-01-06T19:58:08.502Z,5.60
2019-01-06T20:00:48.257Z,5.70
2019-01-06T20:03:30.633Z,5.70
2019-01-06T20:06:03.942Z,5.70
2019-01-06T20:08:40.568Z,5.40
2019-01-06T20:11:14.569Z,5.60
2019-01-06T20:14:01.744Z,5.50
2019-01-06T20:16:47.776Z,5.50
2019-01-06T20:19:24.386Z,5.50
2019-01-06T20:22:00.440Z,5.50
2019-01-06T20:24:32.221Z,5.40
2019-01-06T20:27:19.658Z,5.60
2019-01-06T20:30:08.647Z,5.20
2019-01-06T20:32:48.541Z,5.40
2019-01-06T20:35:36.076Z,5.60
2019-01-06T20:38:07.122Z,5.40
2019-01-06T20:40:54.417Z,5.40
2019-01-06T20:43:27.775Z,5.50
2019-01-06T20:46:01.536Z,5.60
2019-01-06T20:48:31.947Z,5.60
2019-01-06T20:51:05.602Z,5.50
2019-01-06T20:53:53.507Z,5.10
2019-01-06T20:56:38.666Z,5.10
2019-01-06T20:59:14.459Z,5.20
2019-01-06T21:01:59.477Z,5.10
2019-01-06T21:04:35.324Z,5.30
2019-01-06T21:07:08.785Z,5.10
2019-01-06T21:09:39.501Z,5.10
2019-01-06T21:12:27.280Z,5.20
2019-01-06T21:15:16.427Z,5.10
2019-01-06T21:17:47.245Z,5.00
2019-01-06T21:20:17.863Z,5.00
2019-01-06T21:22:48.705Z,5.10
2019-01-06T21:25:28.228Z,5.30
2019-01-06T21:27:59.914Z,5.30
2019-01-06T21:30:47.051Z,5.30
2019-01-06T21:33:33.423Z,5.40
2019-01-06T21:36:21.867Z,5.60
2019-01-06T21:39:06.983Z,5.60
2019-01-06T21:41:43.332Z,5.20
2019-01-06T21:44:16.165Z,5.40
2019-01-06T21:47:05.102Z,5.40
2019-01-06T21:49:35.383Z,5.60
2019-01-06T21:52:08.577Z,5.60
2019-01-06T21:54:56.062Z,5.40
2019-01-06T21:57:32.180Z,5.60
2019-01-06T22:00:12.607Z,5.70
2019-01-06T22:02:50.215Z,5.70
2019-01-06T22:05:21.445Z,5.70
2019-01-06T22:08:08.526Z,6.00
2019-01-06T22:10:38.803Z,6.00
2019-01-06T22:13:21.050Z,5.90
2019-01-06T22:16:07.666Z,5.90
2019-01-06T22:18:37.960Z,5.80
2019-01-06T22:21:08.167Z,5.90
2019-01-06T22:23:38.512Z,6.00
2019-01-06T22:26:11.264Z,5.90
2019-01-06T22:28:47.340Z,5.90
2019-01-06T22:31:33.830Z,6.00
2019-01-06T22:34:16.908Z,6.20
2019-01-06T22:36:47.940Z,6.00
2019-01-06T22:39:27.561Z,6.20
2019-01-06T22:42:00.947Z,6.30
2019-01-06T22:44:37.712Z,6.10
2019-01-06T22:47:14.097Z,6.30
2019-01-06T22:50:00.449Z,6.00
2019-01-06T22:52:47.832Z,6.20
2019-01-06T22:55:35.115Z,6.10
2019-01-06T22:58:09.350Z,6.20
2019-01-06T23:00:43.336Z,6.10
2019-01-06T23:03:16.627Z,6.10
2019-01-06T23:05:53.122Z,6.20
2019-01-06T23:08:40.645Z,6.30
2019-01-06T23:11:14.029Z,6.20
2019-01-06T23:13:50.075Z,6.20
2019-01-06T23:16:20.332Z,6.30
2019-01-06T23:18:56.889Z,6.50
2019-01-06T23:21:36.437Z,6.40
2019-01-06T23:24:20.637Z,6.50
2019-01-06T23:26:51.322Z,6.60
2019-01-06T23:29:22.040Z,6.60
2019-01-06T23:32:01.580Z,6.60
2019-01-06T23:34:32.323Z,6.40
2019-01-06T23:37:03.375Z,6.50
2019-01-06T23:39:37.133Z,6.40
2019-01-06T23:42:07.810Z,6.50
2019-01-06T23:44:41.509Z,6.60
2019-01-06T23:47:24.406Z,6.30
2019-01-06T23:49:57.736Z,6.70
2019-01-06T23:52:44.132Z,6.40
2019-01-06T23:55:31.556Z,6.30
2019-01-06T23:58:13.568Z,6.10
